sensor_id;sensor_type;location;lat;lon;timestamp;P1;durP1;ratioP1;P2;durP2;ratioP2
13847;SDS011;6994;49.752;6.094;2022-07-22T00:02:16;13.57;;;9.20;;
13847;SDS011;6994;49.752;6.094;2022-07-22T00:04:43;11.32;;;10.20;;
13847;SDS011;6994;49.752;6.094;2022-07-22T00:07:11;11.75;;;9.43;;
13847;SDS011;6994;49.752;6.094;2022-07-22T00:09:38;11.23;;;9.48;;
13847;SDS011;6994;49.752;6.094;2022-07-22T00:12:05;13.68;;;10.82;;
13847;SDS011;6994;49.752;6.094;2022-07-22T00:14:32;16.75;;;9.75;;
13847;SDS011;6994;49.752;6.094;2022-07-22T00:16:59;13.73;;;12.30;;
13847;SDS011;6994;49.752;6.094;2022-07-22T00:19:27;13.50;;;11.00;;
13847;SDS011;6994;49.752;6.094;2022-07-22T00:21:54;14.63;;;11.90;;
13847;SDS011;6994;49.752;6.094;2022-07-22T00:24:22;13.32;;;10.55;;
13847;SDS011;6994;49.752;6.094;2022-07-22T00:26:50;12.52;;;9.63;;
13847;SDS011;6994;49.752;6.094;2022-07-22T00:29:17;13.73;;;9.68;;
13847;SDS011;6994;49.752;6.094;2022-07-22T00:31:44;10.70;;;9.70;;
13847;SDS011;6994;49.752;6.094;2022-07-22T00:34:11;16.92;;;12.55;;
13847;SDS011;6994;49.752;6.094;2022-07-22T00:36:39;12.00;;;10.25;;
13847;SDS011;6994;49.752;6.094;2022-07-22T00:39:06;10.75;;;9.65;;
13847;SDS011;6994;49.752;6.094;2022-07-22T00:41:34;12.37;;;9.15;;
13847;SDS011;6994;49.752;6.094;2022-07-22T00:44:03;14.05;;;10.23;;
13847;SDS011;6994;49.752;6.094;2022-07-22T00:46:29;12.18;;;9.93;;
13847;SDS011;6994;49.752;6.094;2022-07-22T00:48:56;11.70;;;10.38;;
13847;SDS011;6994;49.752;6.094;2022-07-22T00:51:23;14.00;;;10.23;;
13847;SDS011;6994;49.752;6.094;2022-07-22T00:53:50;11.27;;;10.13;;
13847;SDS011;6994;49.752;6.094;2022-07-22T00:56:17;13.23;;;9.68;;
13847;SDS011;6994;49.752;6.094;2022-07-22T00:58:45;16.25;;;10.43;;
13847;SDS011;6994;49.752;6.094;2022-07-22T01:01:12;15.55;;;12.63;;
13847;SDS011;6994;49.752;6.094;2022-07-22T01:03:39;12.50;;;9.90;;
13847;SDS011;6994;49.752;6.094;2022-07-22T01:06:06;12.93;;;9.63;;
13847;SDS011;6994;49.752;6.094;2022-07-22T01:08:33;12.25;;;10.20;;
13847;SDS011;6994;49.752;6.094;2022-07-22T01:11:11;13.75;;;10.60;;
13847;SDS011;6994;49.752;6.094;2022-07-22T01:13:33;10.88;;;9.80;;
13847;SDS011;6994;49.752;6.094;2022-07-22T01:16:01;11.77;;;10.57;;
13847;SDS011;6994;49.752;6.094;2022-07-22T01:18:28;12.57;;;10.10;;
13847;SDS011;6994;49.752;6.094;2022-07-22T01:20:56;12.45;;;11.25;;
13847;SDS011;6994;49.752;6.094;2022-07-22T01:23:24;11.63;;;10.25;;
13847;SDS011;6994;49.752;6.094;2022-07-22T01:25:51;12.75;;;9.35;;
13847;SDS011;6994;49.752;6.094;2022-07-22T01:28:18;13.13;;;11.73;;
13847;SDS011;6994;49.752;6.094;2022-07-22T01:30:45;14.65;;;10.93;;
13847;SDS011;6994;49.752;6.094;2022-07-22T01:33:13;12.57;;;10.02;;
13847;SDS011;6994;49.752;6.094;2022-07-22T01:35:41;12.43;;;9.75;;
13847;SDS011;6994;49.752;6.094;2022-07-22T01:38:08;11.20;;;9.65;;
13847;SDS011;6994;49.752;6.094;2022-07-22T01:40:36;12.52;;;10.23;;
13847;SDS011;6994;49.752;6.094;2022-07-22T01:43:03;13.20;;;10.90;;
13847;SDS011;6994;49.752;6.094;2022-07-22T01:45:30;14.60;;;10.70;;
13847;SDS011;6994;49.752;6.094;2022-07-22T01:47:57;17.20;;;12.98;;
13847;SDS011;6994;49.752;6.094;2022-07-22T01:50:25;15.13;;;11.98;;
13847;SDS011;6994;49.752;6.094;2022-07-22T01:52:53;15.48;;;12.37;;
13847;SDS011;6994;49.752;6.094;2022-07-22T01:55:20;14.52;;;12.45;;
13847;SDS011;6994;49.752;6.094;2022-07-22T01:57:47;13.95;;;11.75;;
13847;SDS011;6994;49.752;6.094;2022-07-22T02:00:14;16.08;;;12.00;;
13847;SDS011;6994;49.752;6.094;2022-07-22T02:02:41;15.57;;;12.35;;
13847;SDS011;6994;49.752;6.094;2022-07-22T02:05:09;16.70;;;14.38;;
13847;SDS011;6994;49.752;6.094;2022-07-22T02:07:37;16.20;;;12.45;;
13847;SDS011;6994;49.752;6.094;2022-07-22T02:10:04;16.77;;;12.45;;
13847;SDS011;6994;49.752;6.094;2022-07-22T02:12:31;14.82;;;12.18;;
13847;SDS011;6994;49.752;6.094;2022-07-22T02:14:58;16.02;;;12.85;;
13847;SDS011;6994;49.752;6.094;2022-07-22T02:17:26;15.32;;;11.35;;
13847;SDS011;6994;49.752;6.094;2022-07-22T02:19:54;17.55;;;12.88;;
13847;SDS011;6994;49.752;6.094;2022-07-22T02:22:21;13.95;;;12.55;;
13847;SDS011;6994;49.752;6.094;2022-07-22T02:24:49;16.50;;;12.07;;
13847;SDS011;6994;49.752;6.094;2022-07-22T02:27:16;16.52;;;12.88;;
13847;SDS011;6994;49.752;6.094;2022-07-22T02:29:44;14.90;;;11.48;;
13847;SDS011;6994;49.752;6.094;2022-07-22T02:32:12;13.10;;;11.80;;
13847;SDS011;6994;49.752;6.094;2022-07-22T02:34:40;14.63;;;11.65;;
13847;SDS011;6994;49.752;6.094;2022-07-22T02:37:07;15.50;;;12.77;;
13847;SDS011;6994;49.752;6.094;2022-07-22T02:39:34;14.55;;;12.37;;
13847;SDS011;6994;49.752;6.094;2022-07-22T02:42:01;18.20;;;14.68;;
13847;SDS011;6994;49.752;6.094;2022-07-22T02:44:29;17.00;;;12.70;;
13847;SDS011;6994;49.752;6.094;2022-07-22T02:46:57;14.40;;;12.93;;
13847;SDS011;6994;49.752;6.094;2022-07-22T02:49:25;14.63;;;12.65;;
13847;SDS011;6994;49.752;6.094;2022-07-22T02:51:52;16.48;;;13.43;;
13847;SDS011;6994;49.752;6.094;2022-07-22T02:54:19;15.98;;;13.60;;
13847;SDS011;6994;49.752;6.094;2022-07-22T02:56:46;15.30;;;12.30;;
13847;SDS011;6994;49.752;6.094;2022-07-22T02:59:13;19.92;;;12.82;;
13847;SDS011;6994;49.752;6.094;2022-07-22T03:01:41;16.92;;;13.20;;
13847;SDS011;6994;49.752;6.094;2022-07-22T03:04:08;17.90;;;13.40;;
13847;SDS011;6994;49.752;6.094;2022-07-22T03:06:36;17.10;;;13.18;;
13847;SDS011;6994;49.752;6.094;2022-07-22T03:09:03;20.23;;;13.65;;
13847;SDS011;6994;49.752;6.094;2022-07-22T03:11:30;16.95;;;13.35;;
13847;SDS011;6994;49.752;6.094;2022-07-22T03:13:58;17.25;;;12.35;;
13847;SDS011;6994;49.752;6.094;2022-07-22T03:16:25;14.23;;;12.35;;
13847;SDS011;6994;49.752;6.094;2022-07-22T03:18:52;15.05;;;11.85;;
13847;SDS011;6994;49.752;6.094;2022-07-22T03:21:19;20.95;;;12.35;;
13847;SDS011;6994;49.752;6.094;2022-07-22T03:23:46;15.15;;;11.93;;
13847;SDS011;6994;49.752;6.094;2022-07-22T03:26:14;16.40;;;13.23;;
13847;SDS011;6994;49.752;6.094;2022-07-22T03:28:41;15.75;;;13.77;;
13847;SDS011;6994;49.752;6.094;2022-07-22T03:31:08;19.62;;;15.38;;
13847;SDS011;6994;49.752;6.094;2022-07-22T03:33:35;19.48;;;13.55;;
13847;SDS011;6994;49.752;6.094;2022-07-22T03:36:02;15.52;;;13.32;;
13847;SDS011;6994;49.752;6.094;2022-07-22T03:38:30;21.20;;;18.37;;
13847;SDS011;6994;49.752;6.094;2022-07-22T03:40:57;23.10;;;16.90;;
13847;SDS011;6994;49.752;6.094;2022-07-22T03:43:24;18.67;;;14.15;;
13847;SDS011;6994;49.752;6.094;2022-07-22T03:45:51;19.20;;;13.68;;
13847;SDS011;6994;49.752;6.094;2022-07-22T03:48:18;17.08;;;13.93;;
13847;SDS011;6994;49.752;6.094;2022-07-22T03:50:46;13.48;;;11.95;;
13847;SDS011;6994;49.752;6.094;2022-07-22T03:53:13;20.90;;;14.30;;
13847;SDS011;6994;49.752;6.094;2022-07-22T03:55:40;20.92;;;15.40;;
13847;SDS011;6994;49.752;6.094;2022-07-22T03:58:07;17.85;;;14.27;;
13847;SDS011;6994;49.752;6.094;2022-07-22T04:00:35;20.85;;;14.27;;
13847;SDS011;6994;49.752;6.094;2022-07-22T04:03:02;17.33;;;13.62;;
13847;SDS011;6994;49.752;6.094;2022-07-22T04:05:29;14.57;;;12.30;;
13847;SDS011;6994;49.752;6.094;2022-07-22T04:07:56;17.98;;;13.40;;
13847;SDS011;6994;49.752;6.094;2022-07-22T04:10:23;15.90;;;13.60;;
13847;SDS011;6994;49.752;6.094;2022-07-22T04:12:51;19.75;;;12.80;;
13847;SDS011;6994;49.752;6.094;2022-07-22T04:15:18;18.83;;;16.40;;
13847;SDS011;6994;49.752;6.094;2022-07-22T04:17:45;16.52;;;13.75;;
13847;SDS011;6994;49.752;6.094;2022-07-22T04:20:12;17.62;;;13.62;;
13847;SDS011;6994;49.752;6.094;2022-07-22T04:22:40;17.27;;;13.57;;
13847;SDS011;6994;49.752;6.094;2022-07-22T04:25:07;17.35;;;12.27;;
13847;SDS011;6994;49.752;6.094;2022-07-22T04:27:35;16.85;;;11.73;;
13847;SDS011;6994;49.752;6.094;2022-07-22T04:30:02;17.05;;;10.77;;
13847;SDS011;6994;49.752;6.094;2022-07-22T04:32:30;15.82;;;12.65;;
13847;SDS011;6994;49.752;6.094;2022-07-22T04:34:57;14.73;;;11.80;;
13847;SDS011;6994;49.752;6.094;2022-07-22T04:37:24;15.68;;;11.38;;
13847;SDS011;6994;49.752;6.094;2022-07-22T04:39:51;20.25;;;14.82;;
13847;SDS011;6994;49.752;6.094;2022-07-22T04:42:19;17.02;;;14.82;;
13847;SDS011;6994;49.752;6.094;2022-07-22T04:44:46;13.23;;;11.75;;
13847;SDS011;6994;49.752;6.094;2022-07-22T04:47:14;17.95;;;13.07;;
13847;SDS011;6994;49.752;6.094;2022-07-22T04:49:41;16.33;;;12.10;;
13847;SDS011;6994;49.752;6.094;2022-07-22T04:52:08;15.05;;;11.23;;
13847;SDS011;6994;49.752;6.094;2022-07-22T04:54:35;20.23;;;15.07;;
13847;SDS011;6994;49.752;6.094;2022-07-22T04:57:03;15.15;;;13.15;;
13847;SDS011;6994;49.752;6.094;2022-07-22T04:59:30;16.35;;;11.70;;
13847;SDS011;6994;49.752;6.094;2022-07-22T05:01:57;14.68;;;11.48;;
13847;SDS011;6994;49.752;6.094;2022-07-22T05:04:24;15.38;;;13.00;;
13847;SDS011;6994;49.752;6.094;2022-07-22T05:06:52;13.27;;;11.23;;
13847;SDS011;6994;49.752;6.094;2022-07-22T05:09:19;15.35;;;11.68;;
13847;SDS011;6994;49.752;6.094;2022-07-22T05:11:46;13.82;;;11.52;;
13847;SDS011;6994;49.752;6.094;2022-07-22T05:14:13;14.18;;;10.40;;
13847;SDS011;6994;49.752;6.094;2022-07-22T05:16:40;14.57;;;11.52;;
13847;SDS011;6994;49.752;6.094;2022-07-22T05:19:08;15.65;;;13.38;;
13847;SDS011;6994;49.752;6.094;2022-07-22T05:21:36;14.63;;;11.02;;
13847;SDS011;6994;49.752;6.094;2022-07-22T05:24:03;11.65;;;9.55;;
13847;SDS011;6994;49.752;6.094;2022-07-22T05:26:30;10.52;;;9.40;;
13847;SDS011;6994;49.752;6.094;2022-07-22T05:28:57;13.82;;;11.07;;
13847;SDS011;6994;49.752;6.094;2022-07-22T05:31:24;11.35;;;8.75;;
13847;SDS011;6994;49.752;6.094;2022-07-22T05:33:52;12.37;;;8.48;;
13847;SDS011;6994;49.752;6.094;2022-07-22T05:36:20;8.63;;;7.05;;
13847;SDS011;6994;49.752;6.094;2022-07-22T05:38:47;8.98;;;7.97;;
13847;SDS011;6994;49.752;6.094;2022-07-22T05:41:14;10.75;;;7.05;;
13847;SDS011;6994;49.752;6.094;2022-07-22T05:43:42;9.85;;;6.95;;
13847;SDS011;6994;49.752;6.094;2022-07-22T05:46:09;10.48;;;7.65;;
13847;SDS011;6994;49.752;6.094;2022-07-22T05:48:36;10.90;;;6.60;;
13847;SDS011;6994;49.752;6.094;2022-07-22T05:51:04;9.32;;;6.47;;
13847;SDS011;6994;49.752;6.094;2022-07-22T05:53:31;8.77;;;6.62;;
13847;SDS011;6994;49.752;6.094;2022-07-22T05:55:58;8.73;;;7.18;;
13847;SDS011;6994;49.752;6.094;2022-07-22T05:58:25;8.35;;;6.47;;
13847;SDS011;6994;49.752;6.094;2022-07-22T06:00:52;7.62;;;5.97;;
13847;SDS011;6994;49.752;6.094;2022-07-22T06:03:20;7.25;;;6.22;;
13847;SDS011;6994;49.752;6.094;2022-07-22T06:05:47;7.55;;;5.95;;
13847;SDS011;6994;49.752;6.094;2022-07-22T06:08:15;7.80;;;6.82;;
13847;SDS011;6994;49.752;6.094;2022-07-22T06:10:42;8.02;;;5.97;;
13847;SDS011;6994;49.752;6.094;2022-07-22T06:13:09;7.05;;;5.43;;
13847;SDS011;6994;49.752;6.094;2022-07-22T06:15:36;6.35;;;5.75;;
13847;SDS011;6994;49.752;6.094;2022-07-22T06:18:04;9.38;;;5.87;;
13847;SDS011;6994;49.752;6.094;2022-07-22T06:20:31;6.93;;;6.22;;
13847;SDS011;6994;49.752;6.094;2022-07-22T06:22:58;6.70;;;6.00;;
13847;SDS011;6994;49.752;6.094;2022-07-22T06:25:25;6.12;;;5.30;;
13847;SDS011;6994;49.752;6.094;2022-07-22T06:27:52;6.12;;;5.53;;
13847;SDS011;6994;49.752;6.094;2022-07-22T06:30:20;6.07;;;5.47;;
13847;SDS011;6994;49.752;6.094;2022-07-22T06:32:47;6.65;;;5.62;;
13847;SDS011;6994;49.752;6.094;2022-07-22T06:35:14;5.57;;;5.07;;
13847;SDS011;6994;49.752;6.094;2022-07-22T06:37:42;5.47;;;4.95;;
13847;SDS011;6994;49.752;6.094;2022-07-22T06:40:10;6.47;;;5.25;;
13847;SDS011;6994;49.752;6.094;2022-07-22T06:42:38;5.85;;;5.32;;
13847;SDS011;6994;49.752;6.094;2022-07-22T06:45:05;7.28;;;5.28;;
13847;SDS011;6994;49.752;6.094;2022-07-22T06:47:32;8.00;;;5.90;;
13847;SDS011;6994;49.752;6.094;2022-07-22T06:49:59;8.07;;;6.25;;
13847;SDS011;6994;49.752;6.094;2022-07-22T06:52:26;5.62;;;5.12;;
13847;SDS011;6994;49.752;6.094;2022-07-22T06:54:54;5.53;;;5.03;;
13847;SDS011;6994;49.752;6.094;2022-07-22T06:57:21;5.62;;;4.60;;
13847;SDS011;6994;49.752;6.094;2022-07-22T06:59:49;6.00;;;4.78;;
13847;SDS011;6994;49.752;6.094;2022-07-22T07:02:17;5.97;;;5.22;;
13847;SDS011;6994;49.752;6.094;2022-07-22T07:04:44;6.15;;;5.53;;
13847;SDS011;6994;49.752;6.094;2022-07-22T07:07:11;5.47;;;4.65;;
13847;SDS011;6994;49.752;6.094;2022-07-22T07:09:38;5.97;;;5.18;;
13847;SDS011;6994;49.752;6.094;2022-07-22T07:12:05;5.05;;;4.55;;
13847;SDS011;6994;49.752;6.094;2022-07-22T07:14:33;5.75;;;5.03;;
13847;SDS011;6994;49.752;6.094;2022-07-22T07:17:01;5.20;;;4.70;;
13847;SDS011;6994;49.752;6.094;2022-07-22T07:19:29;6.12;;;5.32;;
13847;SDS011;6994;49.752;6.094;2022-07-22T07:21:56;5.70;;;5.20;;
13847;SDS011;6994;49.752;6.094;2022-07-22T07:24:23;6.75;;;5.40;;
13847;SDS011;6994;49.752;6.094;2022-07-22T07:26:50;6.32;;;5.40;;
13847;SDS011;6994;49.752;6.094;2022-07-22T07:29:17;5.60;;;4.57;;
13847;SDS011;6994;49.752;6.094;2022-07-22T07:31:45;5.75;;;5.25;;
13847;SDS011;6994;49.752;6.094;2022-07-22T07:34:12;6.10;;;4.97;;
13847;SDS011;6994;49.752;6.094;2022-07-22T07:36:39;7.95;;;5.45;;
13847;SDS011;6994;49.752;6.094;2022-07-22T07:39:06;5.05;;;4.55;;
13847;SDS011;6994;49.752;6.094;2022-07-22T07:41:33;4.72;;;4.22;;
13847;SDS011;6994;49.752;6.094;2022-07-22T07:44:01;5.43;;;4.18;;
13847;SDS011;6994;49.752;6.094;2022-07-22T07:46:28;5.97;;;4.32;;
13847;SDS011;6994;49.752;6.094;2022-07-22T07:48:56;7.25;;;4.70;;
13847;SDS011;6994;49.752;6.094;2022-07-22T07:51:24;6.18;;;4.62;;
13847;SDS011;6994;49.752;6.094;2022-07-22T07:53:52;5.28;;;4.68;;
13847;SDS011;6994;49.752;6.094;2022-07-22T07:56:19;5.03;;;4.62;;
13847;SDS011;6994;49.752;6.094;2022-07-22T07:58:46;5.87;;;4.53;;
13847;SDS011;6994;49.752;6.094;2022-07-22T08:01:13;6.07;;;5.47;;
13847;SDS011;6994;49.752;6.094;2022-07-22T08:03:41;6.72;;;4.97;;
13847;SDS011;6994;49.752;6.094;2022-07-22T08:06:08;5.22;;;4.00;;
13847;SDS011;6994;49.752;6.094;2022-07-22T08:08:35;4.85;;;4.32;;
13847;SDS011;6994;49.752;6.094;2022-07-22T08:11:02;5.90;;;5.18;;
13847;SDS011;6994;49.752;6.094;2022-07-22T08:13:29;6.12;;;4.85;;
13847;SDS011;6994;49.752;6.094;2022-07-22T08:15:57;4.65;;;4.25;;
13847;SDS011;6994;49.752;6.094;2022-07-22T08:18:25;5.55;;;4.28;;
13847;SDS011;6994;49.752;6.094;2022-07-22T08:20:52;5.32;;;4.80;;
13847;SDS011;6994;49.752;6.094;2022-07-22T08:23:19;6.60;;;4.65;;
13847;SDS011;6994;49.752;6.094;2022-07-22T08:25:47;5.30;;;4.80;;
13847;SDS011;6994;49.752;6.094;2022-07-22T08:28:15;4.72;;;4.20;;
13847;SDS011;6994;49.752;6.094;2022-07-22T08:30:42;5.20;;;4.70;;
13847;SDS011;6994;49.752;6.094;2022-07-22T08:33:09;5.60;;;4.20;;
13847;SDS011;6994;49.752;6.094;2022-07-22T08:35:36;6.28;;;4.45;;
13847;SDS011;6994;49.752;6.094;2022-07-22T08:38:04;6.45;;;3.97;;
13847;SDS011;6994;49.752;6.094;2022-07-22T08:40:31;6.10;;;4.70;;
13847;SDS011;6994;49.752;6.094;2022-07-22T08:42:58;7.40;;;4.20;;
13847;SDS011;6994;49.752;6.094;2022-07-22T08:45:25;5.28;;;4.47;;
13847;SDS011;6994;49.752;6.094;2022-07-22T08:47:53;4.72;;;4.20;;
13847;SDS011;6994;49.752;6.094;2022-07-22T08:50:20;4.95;;;4.43;;
13847;SDS011;6994;49.752;6.094;2022-07-22T08:52:48;5.00;;;4.60;;
13847;SDS011;6994;49.752;6.094;2022-07-22T08:55:16;5.75;;;3.70;;
13847;SDS011;6994;49.752;6.094;2022-07-22T08:57:47;5.47;;;4.00;;
13847;SDS011;6994;49.752;6.094;2022-07-22T09:00:15;6.95;;;3.40;;
13847;SDS011;6994;49.752;6.094;2022-07-22T09:02:42;4.87;;;4.05;;
13847;SDS011;6994;49.752;6.094;2022-07-22T09:05:12;7.50;;;3.62;;
13847;SDS011;6994;49.752;6.094;2022-07-22T09:07:39;5.35;;;4.85;;
13847;SDS011;6994;49.752;6.094;2022-07-22T09:10:11;4.45;;;3.67;;
13847;SDS011;6994;49.752;6.094;2022-07-22T09:12:33;4.47;;;3.65;;
13847;SDS011;6994;49.752;6.094;2022-07-22T09:15:01;4.07;;;2.97;;
13847;SDS011;6994;49.752;6.094;2022-07-22T09:17:34;4.57;;;4.00;;
13847;SDS011;6994;49.752;6.094;2022-07-22T09:20:02;6.32;;;3.42;;
13847;SDS011;6994;49.752;6.094;2022-07-22T09:22:41;4.70;;;3.17;;
13847;SDS011;6994;49.752;6.094;2022-07-22T09:25:20;4.18;;;3.12;;
13847;SDS011;6994;49.752;6.094;2022-07-22T09:27:47;4.65;;;3.55;;
13847;SDS011;6994;49.752;6.094;2022-07-22T09:30:14;3.55;;;3.20;;
13847;SDS011;6994;49.752;6.094;2022-07-22T09:32:42;3.70;;;3.30;;
13847;SDS011;6994;49.752;6.094;2022-07-22T09:35:10;4.20;;;3.37;;
13847;SDS011;6994;49.752;6.094;2022-07-22T09:37:37;3.42;;;2.95;;
13847;SDS011;6994;49.752;6.094;2022-07-22T09:40:13;2.50;;;2.30;;
13847;SDS011;6994;49.752;6.094;2022-07-22T09:42:47;2.87;;;2.67;;
13847;SDS011;6994;49.752;6.094;2022-07-22T09:45:20;4.37;;;3.20;;
13847;SDS011;6994;49.752;6.094;2022-07-22T09:47:47;5.07;;;3.08;;
13847;SDS011;6994;49.752;6.094;2022-07-22T09:52:41;4.53;;;3.15;;
13847;SDS011;6994;49.752;6.094;2022-07-22T09:55:08;5.40;;;3.40;;
13847;SDS011;6994;49.752;6.094;2022-07-22T09:57:36;3.53;;;2.58;;
13847;SDS011;6994;49.752;6.094;2022-07-22T10:00:04;3.65;;;2.58;;
13847;SDS011;6994;49.752;6.094;2022-07-22T10:02:31;3.92;;;3.05;;
13847;SDS011;6994;49.752;6.094;2022-07-22T10:04:58;4.18;;;3.87;;
13847;SDS011;6994;49.752;6.094;2022-07-22T10:07:25;3.80;;;3.50;;
13847;SDS011;6994;49.752;6.094;2022-07-22T10:09:53;5.25;;;3.12;;
13847;SDS011;6994;49.752;6.094;2022-07-22T10:12:20;3.53;;;2.90;;
13847;SDS011;6994;49.752;6.094;2022-07-22T10:14:48;7.62;;;3.00;;
13847;SDS011;6994;49.752;6.094;2022-07-22T10:17:15;3.62;;;2.90;;
13847;SDS011;6994;49.752;6.094;2022-07-22T10:19:42;4.35;;;2.97;;
13847;SDS011;6994;49.752;6.094;2022-07-22T10:25:05;4.72;;;2.90;;
13847;SDS011;6994;49.752;6.094;2022-07-22T10:30:18;4.62;;;3.70;;
13847;SDS011;6994;49.752;6.094;2022-07-22T10:32:44;5.05;;;3.58;;
13847;SDS011;6994;49.752;6.094;2022-07-22T10:37:39;3.65;;;3.35;;
13847;SDS011;6994;49.752;6.094;2022-07-22T10:40:13;4.65;;;3.37;;
13847;SDS011;6994;49.752;6.094;2022-07-22T10:45:25;5.15;;;2.83;;
13847;SDS011;6994;49.752;6.094;2022-07-22T10:48:02;3.35;;;2.67;;
13847;SDS011;6994;49.752;6.094;2022-07-22T10:53:07;4.40;;;4.00;;
13847;SDS011;6994;49.752;6.094;2022-07-22T10:55:29;5.00;;;3.47;;
13847;SDS011;6994;49.752;6.094;2022-07-22T10:57:57;5.05;;;3.60;;
13847;SDS011;6994;49.752;6.094;2022-07-22T11:00:25;3.97;;;3.67;;
13847;SDS011;6994;49.752;6.094;2022-07-22T11:02:52;4.05;;;3.37;;
13847;SDS011;6994;49.752;6.094;2022-07-22T11:05:26;4.00;;;3.65;;
13847;SDS011;6994;49.752;6.094;2022-07-22T11:07:53;5.05;;;3.85;;
13847;SDS011;6994;49.752;6.094;2022-07-22T11:10:20;4.90;;;4.40;;
13847;SDS011;6994;49.752;6.094;2022-07-22T11:12:48;5.85;;;4.30;;
13847;SDS011;6994;49.752;6.094;2022-07-22T11:15:16;4.72;;;3.97;;
13847;SDS011;6994;49.752;6.094;2022-07-22T11:17:43;5.22;;;4.45;;
13847;SDS011;6994;49.752;6.094;2022-07-22T11:20:11;4.05;;;3.67;;
13847;SDS011;6994;49.752;6.094;2022-07-22T11:22:38;4.78;;;4.37;;
13847;SDS011;6994;49.752;6.094;2022-07-22T11:25:07;6.78;;;3.67;;
13847;SDS011;6994;49.752;6.094;2022-07-22T11:27:33;7.22;;;3.62;;
13847;SDS011;6994;49.752;6.094;2022-07-22T11:30:00;3.95;;;3.60;;
13847;SDS011;6994;49.752;6.094;2022-07-22T11:32:27;4.45;;;4.05;;
13847;SDS011;6994;49.752;6.094;2022-07-22T11:34:54;5.03;;;4.62;;
13847;SDS011;6994;49.752;6.094;2022-07-22T11:37:22;6.18;;;4.25;;
13847;SDS011;6994;49.752;6.094;2022-07-22T11:39:52;6.60;;;3.37;;
13847;SDS011;6994;49.752;6.094;2022-07-22T11:42:19;4.32;;;3.92;;
13847;SDS011;6994;49.752;6.094;2022-07-22T11:44:47;5.60;;;3.90;;
13847;SDS011;6994;49.752;6.094;2022-07-22T11:47:14;4.72;;;4.32;;
13847;SDS011;6994;49.752;6.094;2022-07-22T11:49:41;4.40;;;4.00;;
13847;SDS011;6994;49.752;6.094;2022-07-22T11:52:09;4.95;;;4.53;;
13847;SDS011;6994;49.752;6.094;2022-07-22T11:54:35;4.20;;;3.87;;
13847;SDS011;6994;49.752;6.094;2022-07-22T11:57:03;5.87;;;4.55;;
13847;SDS011;6994;49.752;6.094;2022-07-22T11:59:30;4.32;;;3.92;;
13847;SDS011;6994;49.752;6.094;2022-07-22T12:01:57;5.40;;;4.07;;
13847;SDS011;6994;49.752;6.094;2022-07-22T12:04:25;4.50;;;4.10;;
13847;SDS011;6994;49.752;6.094;2022-07-22T12:06:52;5.93;;;4.10;;
13847;SDS011;6994;49.752;6.094;2022-07-22T12:11:47;5.00;;;4.28;;
13847;SDS011;6994;49.752;6.094;2022-07-22T12:14:14;5.90;;;4.30;;
13847;SDS011;6994;49.752;6.094;2022-07-22T12:16:44;4.50;;;4.10;;
13847;SDS011;6994;49.752;6.094;2022-07-22T12:19:11;4.43;;;4.12;;
13847;SDS011;6994;49.752;6.094;2022-07-22T12:21:54;6.43;;;4.50;;
13847;SDS011;6994;49.752;6.094;2022-07-22T12:24:33;4.68;;;4.35;;
13847;SDS011;6994;49.752;6.094;2022-07-22T12:27:03;4.80;;;4.28;;
13847;SDS011;6994;49.752;6.094;2022-07-22T12:29:30;6.05;;;4.40;;
13847;SDS011;6994;49.752;6.094;2022-07-22T12:31:57;4.93;;;4.53;;
13847;SDS011;6994;49.752;6.094;2022-07-22T12:34:30;4.72;;;4.30;;
13847;SDS011;6994;49.752;6.094;2022-07-22T12:37:01;7.22;;;4.18;;
13847;SDS011;6994;49.752;6.094;2022-07-22T12:39:28;4.37;;;3.97;;
13847;SDS011;6994;49.752;6.094;2022-07-22T12:41:55;5.25;;;4.85;;
13847;SDS011;6994;49.752;6.094;2022-07-22T12:44:24;5.32;;;4.53;;
13847;SDS011;6994;49.752;6.094;2022-07-22T12:46:51;4.55;;;4.12;;
13847;SDS011;6994;49.752;6.094;2022-07-22T12:49:17;4.90;;;4.50;;
13847;SDS011;6994;49.752;6.094;2022-07-22T12:54:33;7.32;;;4.50;;
13847;SDS011;6994;49.752;6.094;2022-07-22T12:57:00;4.93;;;4.53;;
13847;SDS011;6994;49.752;6.094;2022-07-22T12:59:27;4.93;;;4.53;;
13847;SDS011;6994;49.752;6.094;2022-07-22T13:01:54;5.40;;;4.80;;
13847;SDS011;6994;49.752;6.094;2022-07-22T13:04:22;5.65;;;5.15;;
13847;SDS011;6994;49.752;6.094;2022-07-22T13:06:49;7.62;;;4.40;;
13847;SDS011;6994;49.752;6.094;2022-07-22T13:09:16;4.07;;;3.55;;
13847;SDS011;6994;49.752;6.094;2022-07-22T13:11:43;5.05;;;4.65;;
13847;SDS011;6994;49.752;6.094;2022-07-22T13:14:11;5.30;;;4.90;;
13847;SDS011;6994;49.752;6.094;2022-07-22T13:16:38;4.22;;;3.92;;
13847;SDS011;6994;49.752;6.094;2022-07-22T13:19:05;4.90;;;4.50;;
13847;SDS011;6994;49.752;6.094;2022-07-22T13:21:32;5.15;;;4.75;;
13847;SDS011;6994;49.752;6.094;2022-07-22T13:23:59;5.07;;;4.68;;
13847;SDS011;6994;49.752;6.094;2022-07-22T13:26:27;6.53;;;4.50;;
13847;SDS011;6994;49.752;6.094;2022-07-22T13:28:54;5.07;;;4.55;;
13847;SDS011;6994;49.752;6.094;2022-07-22T13:31:21;6.37;;;4.50;;
13847;SDS011;6994;49.752;6.094;2022-07-22T13:33:48;5.25;;;4.78;;
13847;SDS011;6994;49.752;6.094;2022-07-22T13:36:16;4.87;;;4.15;;
13847;SDS011;6994;49.752;6.094;2022-07-22T13:38:43;9.52;;;4.62;;
13847;SDS011;6994;49.752;6.094;2022-07-22T13:41:10;5.53;;;4.70;;
13847;SDS011;6994;49.752;6.094;2022-07-22T13:43:37;6.18;;;3.95;;
13847;SDS011;6994;49.752;6.094;2022-07-22T13:46:04;4.50;;;4.10;;
13847;SDS011;6994;49.752;6.094;2022-07-22T13:48:32;4.25;;;3.85;;
13847;SDS011;6994;49.752;6.094;2022-07-22T13:50:59;7.57;;;4.45;;
13847;SDS011;6994;49.752;6.094;2022-07-22T13:53:26;4.95;;;4.55;;
13847;SDS011;6994;49.752;6.094;2022-07-22T13:55:54;6.10;;;4.57;;
13847;SDS011;6994;49.752;6.094;2022-07-22T13:58:21;4.90;;;4.40;;
13847;SDS011;6994;49.752;6.094;2022-07-22T14:00:48;4.95;;;4.53;;
13847;SDS011;6994;49.752;6.094;2022-07-22T14:03:16;4.40;;;4.00;;
13847;SDS011;6994;49.752;6.094;2022-07-22T14:05:43;7.43;;;4.35;;
13847;SDS011;6994;49.752;6.094;2022-07-22T14:08:10;4.37;;;4.07;;
13847;SDS011;6994;49.752;6.094;2022-07-22T14:10:37;5.00;;;4.60;;
13847;SDS011;6994;49.752;6.094;2022-07-22T14:13:04;5.28;;;4.75;;
13847;SDS011;6994;49.752;6.094;2022-07-22T14:15:32;5.57;;;4.25;;
13847;SDS011;6994;49.752;6.094;2022-07-22T14:17:59;4.72;;;4.22;;
13847;SDS011;6994;49.752;6.094;2022-07-22T14:20:27;5.25;;;4.85;;
13847;SDS011;6994;49.752;6.094;2022-07-22T14:22:54;4.93;;;4.50;;
13847;SDS011;6994;49.752;6.094;2022-07-22T14:25:21;6.25;;;4.93;;
13847;SDS011;6994;49.752;6.094;2022-07-22T14:27:49;6.78;;;4.32;;
13847;SDS011;6994;49.752;6.094;2022-07-22T14:30:16;6.90;;;4.55;;
13847;SDS011;6994;49.752;6.094;2022-07-22T14:32:43;4.87;;;4.47;;
13847;SDS011;6994;49.752;6.094;2022-07-22T14:35:10;6.68;;;4.53;;
13847;SDS011;6994;49.752;6.094;2022-07-22T14:37:37;5.47;;;4.60;;
13847;SDS011;6994;49.752;6.094;2022-07-22T14:40:05;6.05;;;4.78;;
13847;SDS011;6994;49.752;6.094;2022-07-22T14:42:32;5.68;;;5.18;;
13847;SDS011;6994;49.752;6.094;2022-07-22T14:44:59;5.55;;;5.05;;
13847;SDS011;6994;49.752;6.094;2022-07-22T14:47:27;5.30;;;4.80;;
13847;SDS011;6994;49.752;6.094;2022-07-22T14:49:54;6.10;;;4.82;;
13847;SDS011;6994;49.752;6.094;2022-07-22T14:52:21;5.20;;;4.60;;
13847;SDS011;6994;49.752;6.094;2022-07-22T14:54:49;7.07;;;5.00;;
13847;SDS011;6994;49.752;6.094;2022-07-22T14:57:16;5.10;;;4.60;;
13847;SDS011;6994;49.752;6.094;2022-07-22T14:59:43;11.50;;;5.65;;
13847;SDS011;6994;49.752;6.094;2022-07-22T15:02:10;6.53;;;5.32;;
13847;SDS011;6994;49.752;6.094;2022-07-22T15:04:37;6.97;;;4.95;;
13847;SDS011;6994;49.752;6.094;2022-07-22T15:07:05;5.43;;;4.95;;
13847;SDS011;6994;49.752;6.094;2022-07-22T15:09:32;5.32;;;4.82;;
13847;SDS011;6994;49.752;6.094;2022-07-22T15:11:59;5.40;;;4.90;;
13847;SDS011;6994;49.752;6.094;2022-07-22T15:14:26;5.37;;;4.97;;
13847;SDS011;6994;49.752;6.094;2022-07-22T15:16:54;5.20;;;4.60;;